Time;durP1;ratioP1;P1;durP2;ratioP2;P2;SDS_P1;SDS_P2;PMS_P1;PMS_P2;Temp;Humidity;BMP_temperature;BMP_pressure;BME280_temperature;BME280_humidity;BME280_pressure;Samples;Min_cycle;Max_cycle;Signal;HPM_P1;HPM_P2
2022/08/13 00:00:32;;;;;;;10.88;5.47;;;;;;;;;;5040124;28;20020;-65
2022/08/13 00:02:59;;;;;;;11.50;6.15;;;;;;;;;;5042824;28;20373;-65
2022/08/13 00:05:26;;;;;;;11.20;5.70;;;;;;;;;;5037818;28;20035;-64
2022/08/13 00:07:52;;;;;;;11.23;5.78;;;;;;;;;;5044236;28;20871;-64
2022/08/13 00:10:29;;;;;;;10.00;5.25;;;;;;;;;;5037990;28;20059;-66
2022/08/13 00:13:01;;;;;;;11.43;5.75;;;;;;;;;;5038047;28;20445;-65
2022/08/13 00:15:28;;;;;;;10.80;5.80;;;;;;;;;;5039166;28;20013;-65
2022/08/13 00:17:56;;;;;;;11.82;5.65;;;;;;;;;;5045270;28;20081;-66
2022/08/13 00:20:25;;;;;;;10.88;5.38;;;;;;;;;;5036965;28;20132;-65
2022/08/13 00:22:51;;;;;;;10.15;5.20;;;;;;;;;;5041086;28;20608;-65
2022/08/13 00:25:20;;;;;;;10.25;5.65;;;;;;;;;;5041202;28;20330;-64
2022/08/13 00:27:56;;;;;;;12.32;5.90;;;;;;;;;;5041549;28;20032;-65
2022/08/13 00:30:23;;;;;;;10.30;5.50;;;;;;;;;;5035803;28;20132;-64
2022/08/13 00:32:50;;;;;;;12.00;5.53;;;;;;;;;;5040548;28;20742;-64
2022/08/13 00:35:18;;;;;;;11.65;5.82;;;;;;;;;;5042684;28;20055;-64
2022/08/13 00:37:44;;;;;;;10.85;5.22;;;;;;;;;;5041937;28;20030;-65
2022/08/13 00:40:17;;;;;;;10.18;4.93;;;;;;;;;;5062446;28;21031;-65
2022/08/13 00:42:43;;;;;;;9.75;5.05;;;;;;;;;;5038128;28;20987;-66
2022/08/13 00:45:10;;;;;;;11.63;5.80;;;;;;;;;;5040514;28;20031;-63
2022/08/13 00:50:21;;;;;;;11.57;5.65;;;;;;;;;;5039252;28;20081;-64
2022/08/13 00:52:49;;;;;;;10.48;5.43;;;;;;;;;;5040717;28;20418;-64
2022/08/13 00:55:17;;;;;;;10.98;5.43;;;;;;;;;;5038452;28;20032;-65
2022/08/13 00:57:45;;;;;;;9.48;5.47;;;;;;;;;;5043733;28;20030;-64
2022/08/13 01:00:13;;;;;;;13.20;5.70;;;;;;;;;;5041715;28;20033;-63
2022/08/13 01:02:43;;;;;;;11.00;5.65;;;;;;;;;;5030854;28;20033;-64
2022/08/13 01:05:09;;;;;;;11.25;6.00;;;;;;;;;;5040562;28;20253;-63
2022/08/13 01:07:39;;;;;;;11.85;6.07;;;;;;;;;;5042893;28;22784;-63
2022/08/13 01:10:05;;;;;;;11.98;5.78;;;;;;;;;;5042802;28;20021;-64
2022/08/13 01:12:34;;;;;;;10.32;5.88;;;;;;;;;;5038396;28;20271;-64
2022/08/13 01:15:02;;;;;;;11.50;5.45;;;;;;;;;;5039338;28;20025;-64
2022/08/13 01:17:28;;;;;;;10.80;6.03;;;;;;;;;;5039911;28;20364;-65
2022/08/13 01:19:55;;;;;;;11.40;5.55;;;;;;;;;;5041906;28;20056;-65
2022/08/13 01:22:22;;;;;;;14.30;6.20;;;;;;;;;;5050857;28;20052;-64
2022/08/13 01:24:50;;;;;;;11.95;6.95;;;;;;;;;;5042398;28;20025;-63
2022/08/13 01:27:18;;;;;;;15.40;6.47;;;;;;;;;;5040072;28;20029;-64
2022/08/13 01:29:47;;;;;;;15.57;6.85;;;;;;;;;;5038111;28;20525;-63
2022/08/13 01:32:15;;;;;;;10.75;6.97;;;;;;;;;;5040582;28;20037;-64
2022/08/13 01:34:45;;;;;;;15.43;6.65;;;;;;;;;;5042707;28;20036;-64
2022/08/13 01:37:12;;;;;;;14.18;7.15;;;;;;;;;;5041908;28;20070;-65
2022/08/13 01:39:38;;;;;;;11.13;6.25;;;;;;;;;;5036850;28;20035;-64
2022/08/13 01:42:05;;;;;;;12.52;6.65;;;;;;;;;;5042770;28;20590;-64
2022/08/13 01:44:32;;;;;;;12.57;6.50;;;;;;;;;;5037460;28;20473;-64
2022/08/13 01:52:33;;;;;;;9.80;6.03;;;;;;;;;;5039887;28;20047;-64
2022/08/13 01:55:01;;;;;;;11.38;6.47;;;;;;;;;;5043738;28;20039;-63
2022/08/13 01:57:27;;;;;;;11.82;6.45;;;;;;;;;;5035418;28;20073;-63
2022/08/13 01:59:53;;;;;;;11.45;6.68;;;;;;;;;;5036594;28;20109;-63
2022/08/13 02:02:25;;;;;;;12.60;6.70;;;;;;;;;;5037639;28;20024;-64
2022/08/13 02:04:52;;;;;;;12.45;6.45;;;;;;;;;;5036437;28;20042;-64
2022/08/13 02:07:18;;;;;;;12.13;6.70;;;;;;;;;;5036333;28;20039;-64
2022/08/13 02:09:44;;;;;;;12.25;6.75;;;;;;;;;;5040616;28;20033;-64
2022/08/13 02:12:15;;;;;;;11.85;6.40;;;;;;;;;;5044603;28;20401;-64
2022/08/13 02:14:42;;;;;;;13.27;6.45;;;;;;;;;;5041392;28;20143;-64
2022/08/13 02:17:27;;;;;;;11.07;6.80;;;;;;;;;;5037982;28;20500;-64
2022/08/13 02:19:57;;;;;;;11.10;6.00;;;;;;;;;;5039063;28;20168;-64
2022/08/13 02:22:24;;;;;;;14.98;6.60;;;;;;;;;;5043242;28;20431;-63
2022/08/13 02:24:53;;;;;;;11.63;6.75;;;;;;;;;;5039019;28;20035;-64
2022/08/13 02:27:20;;;;;;;10.45;6.55;;;;;;;;;;5054713;28;20451;-64
2022/08/13 02:29:48;;;;;;;13.40;5.90;;;;;;;;;;5044977;28;21338;-65
2022/08/13 02:32:14;;;;;;;10.90;6.30;;;;;;;;;;5047955;28;20158;-64
2022/08/13 02:34:40;;;;;;;10.63;6.70;;;;;;;;;;5034846;28;20139;-64
2022/08/13 02:37:06;;;;;;;11.65;6.40;;;;;;;;;;5043650;28;20115;-64
2022/08/13 02:39:32;;;;;;;10.38;6.57;;;;;;;;;;5035592;28;20314;-64
2022/08/13 02:41:58;;;;;;;11.25;6.63;;;;;;;;;;5045970;28;20067;-64
2022/08/13 02:44:25;;;;;;;13.73;6.63;;;;;;;;;;5042511;28;20491;-64
2022/08/13 02:46:52;;;;;;;10.43;6.15;;;;;;;;;;5042009;28;20025;-65
2022/08/13 02:49:21;;;;;;;10.13;6.18;;;;;;;;;;5037754;28;20032;-64
2022/08/13 02:51:47;;;;;;;12.85;6.60;;;;;;;;;;5041042;28;20637;-64
2022/08/13 02:54:18;;;;;;;12.30;7.03;;;;;;;;;;5042237;28;20040;-65
2022/08/13 02:56:44;;;;;;;12.07;6.82;;;;;;;;;;5040200;28;20463;-65
2022/08/13 02:59:11;;;;;;;11.40;6.60;;;;;;;;;;5039156;28;20041;-64
2022/08/13 03:01:38;;;;;;;11.48;6.55;;;;;;;;;;5041063;28;20353;-64
2022/08/13 03:04:05;;;;;;;10.55;6.70;;;;;;;;;;5042308;28;20067;-64
2022/08/13 03:06:32;;;;;;;13.05;7.20;;;;;;;;;;5037989;28;21005;-64
2022/08/13 03:09:00;;;;;;;13.25;7.38;;;;;;;;;;5061133;28;20020;-64
2022/08/13 03:11:27;;;;;;;13.80;7.45;;;;;;;;;;5042210;28;20396;-64
2022/08/13 03:13:57;;;;;;;11.70;6.70;;;;;;;;;;5058945;28;20021;-63
2022/08/13 03:16:26;;;;;;;12.23;6.68;;;;;;;;;;5040333;28;20039;-64
2022/08/13 03:18:53;;;;;;;11.57;6.93;;;;;;;;;;5043568;28;20439;-64
2022/08/13 03:21:20;;;;;;;11.23;6.95;;;;;;;;;;5037571;28;20601;-64
2022/08/13 03:23:46;;;;;;;11.00;7.10;;;;;;;;;;5047549;28;20480;-64
2022/08/13 03:26:13;;;;;;;11.68;7.30;;;;;;;;;;5047054;28;20020;-64
2022/08/13 03:28:39;;;;;;;12.13;7.03;;;;;;;;;;5040875;28;20040;-67
2022/08/13 03:31:06;;;;;;;11.68;7.15;;;;;;;;;;5047116;28;20078;-64
2022/08/13 03:33:32;;;;;;;12.32;7.10;;;;;;;;;;5038738;28;20558;-63
2022/08/13 03:35:59;;;;;;;12.82;7.32;;;;;;;;;;5044774;28;20054;-63
2022/08/13 03:38:25;;;;;;;12.23;6.45;;;;;;;;;;5041303;28;20402;-64
2022/08/13 03:41:00;;;;;;;10.45;6.63;;;;;;;;;;5043068;28;20031;-65
2022/08/13 03:43:27;;;;;;;10.90;7.00;;;;;;;;;;5041514;28;20437;-64
2022/08/13 03:45:54;;;;;;;11.25;6.53;;;;;;;;;;5042461;28;20522;-64
2022/08/13 03:48:21;;;;;;;13.43;7.05;;;;;;;;;;5037452;28;20424;-65
2022/08/13 03:50:48;;;;;;;12.18;6.35;;;;;;;;;;5039001;28;20048;-65
2022/08/13 03:53:16;;;;;;;10.38;5.93;;;;;;;;;;5056535;28;20042;-64
2022/08/13 03:55:42;;;;;;;9.15;6.03;;;;;;;;;;5039817;28;20473;-64
2022/08/13 03:58:10;;;;;;;11.13;6.47;;;;;;;;;;5037120;28;20141;-65
2022/08/13 04:00:40;;;;;;;11.68;6.43;;;;;;;;;;5038229;28;20025;-65
2022/08/13 04:03:13;;;;;;;13.77;6.45;;;;;;;;;;5039586;28;20144;-64
2022/08/13 04:05:40;;;;;;;11.00;5.60;;;;;;;;;;5042795;28;20039;-66
2022/08/13 04:08:06;;;;;;;10.85;5.80;;;;;;;;;;5045953;28;20085;-64
2022/08/13 04:10:33;;;;;;;10.05;5.72;;;;;;;;;;5037986;28;20037;-65
2022/08/13 04:12:59;;;;;;;10.43;6.07;;;;;;;;;;5055714;28;20457;-65
2022/08/13 04:15:25;;;;;;;11.05;5.97;;;;;;;;;;5038421;28;20584;-66
2022/08/13 04:17:53;;;;;;;10.15;5.80;;;;;;;;;;5038507;28;20386;-65
2022/08/13 04:20:19;;;;;;;10.60;5.80;;;;;;;;;;5036444;28;20119;-66
2022/08/13 04:22:45;;;;;;;12.20;5.53;;;;;;;;;;5039860;28;20028;-66
2022/08/13 04:25:12;;;;;;;11.68;5.93;;;;;;;;;;5040051;28;20467;-66
2022/08/13 04:27:38;;;;;;;9.65;6.22;;;;;;;;;;5038910;28;20040;-65
2022/08/13 04:30:05;;;;;;;10.60;5.78;;;;;;;;;;5038624;28;20028;-66
2022/08/13 04:32:41;;;;;;;10.27;5.72;;;;;;;;;;5038802;28;20458;-66
2022/08/13 04:35:08;;;;;;;11.82;5.88;;;;;;;;;;5040561;28;20038;-65
2022/08/13 04:37:34;;;;;;;15.35;6.50;;;;;;;;;;5036209;28;20115;-67
2022/08/13 04:40:01;;;;;;;11.00;6.50;;;;;;;;;;5035746;28;20115;-66
2022/08/13 04:42:27;;;;;;;10.23;5.47;;;;;;;;;;5040474;28;20029;-66
2022/08/13 04:44:53;;;;;;;10.68;5.93;;;;;;;;;;5036783;28;20016;-66
2022/08/13 04:47:19;;;;;;;14.52;6.80;;;;;;;;;;5038623;28;20271;-65
2022/08/13 04:49:48;;;;;;;12.10;6.53;;;;;;;;;;5040872;28;20029;-63
2022/08/13 04:52:14;;;;;;;12.10;6.40;;;;;;;;;;5039507;28;20170;-66
2022/08/13 04:54:42;;;;;;;11.45;5.47;;;;;;;;;;5036223;28;20409;-67
2022/08/13 04:57:08;;;;;;;15.30;6.63;;;;;;;;;;5040141;28;20035;-64
2022/08/13 04:59:35;;;;;;;10.85;6.65;;;;;;;;;;5037873;28;20040;-65
2022/08/13 05:02:01;;;;;;;9.88;5.95;;;;;;;;;;5040914;28;20039;-65
2022/08/13 05:04:27;;;;;;;11.20;6.07;;;;;;;;;;5039144;28;20025;-65
2022/08/13 05:06:55;;;;;;;11.07;6.15;;;;;;;;;;5043672;28;20361;-64
2022/08/13 05:09:21;;;;;;;13.00;6.35;;;;;;;;;;5039115;28;20115;-65
2022/08/13 05:11:48;;;;;;;13.55;6.65;;;;;;;;;;5040195;28;20336;-64
2022/08/13 05:14:14;;;;;;;9.95;5.78;;;;;;;;;;5043494;28;20435;-64
2022/08/13 05:16:40;;;;;;;15.27;6.53;;;;;;;;;;5036546;28;20604;-67
2022/08/13 05:19:08;;;;;;;11.52;6.55;;;;;;;;;;5040855;28;20560;-67
2022/08/13 05:21:34;;;;;;;12.00;6.60;;;;;;;;;;5032415;28;20059;-67
2022/08/13 05:24:00;;;;;;;11.23;6.00;;;;;;;;;;5040768;28;20059;-69
2022/08/13 05:26:31;;;;;;;11.25;5.95;;;;;;;;;;5036631;28;20040;-68
2022/08/13 05:29:04;;;;;;;13.75;6.20;;;;;;;;;;5040205;28;20035;-68
2022/08/13 05:31:30;;;;;;;12.20;5.95;;;;;;;;;;5037789;28;20028;-68
2022/08/13 05:33:57;;;;;;;11.35;5.38;;;;;;;;;;5041689;28;20056;-68
2022/08/13 05:36:28;;;;;;;10.05;6.10;;;;;;;;;;5036361;28;20459;-67
2022/08/13 05:38:55;;;;;;;11.18;6.28;;;;;;;;;;5041040;28;20025;-66
2022/08/13 05:41:23;;;;;;;12.43;6.47;;;;;;;;;;5036861;28;20110;-66
2022/08/13 05:43:51;;;;;;;13.25;6.35;;;;;;;;;;5040427;28;20073;-65
2022/08/13 05:46:17;;;;;;;11.30;6.20;;;;;;;;;;5038400;28;20063;-67
2022/08/13 05:48:56;;;;;;;11.30;6.00;;;;;;;;;;5042617;28;20068;-64
2022/08/13 05:51:24;;;;;;;11.88;5.97;;;;;;;;;;5034810;28;20048;-64
2022/08/13 05:53:54;;;;;;;15.35;6.15;;;;;;;;;;5018857;28;20032;-66
2022/08/13 05:56:21;;;;;;;12.27;6.15;;;;;;;;;;5037749;28;20078;-66
2022/08/13 05:58:48;;;;;;;13.68;5.88;;;;;;;;;;5041939;28;20032;-63
2022/08/13 06:04:02;;;;;;;11.80;5.90;;;;;;;;;;5043638;28;20492;-64
2022/08/13 06:06:28;;;;;;;12.30;5.72;;;;;;;;;;5038138;28;21009;-66
2022/08/13 06:08:58;;;;;;;11.55;5.50;;;;;;;;;;5039579;28;20433;-65
2022/08/13 06:11:25;;;;;;;12.88;5.65;;;;;;;;;;5038420;28;20031;-65
2022/08/13 06:13:51;;;;;;;11.98;5.95;;;;;;;;;;5040515;28;20036;-65
2022/08/13 06:16:21;;;;;;;11.77;5.50;;;;;;;;;;5055427;28;20671;-65
2022/08/13 06:18:48;;;;;;;15.18;5.65;;;;;;;;;;5041710;28;20520;-65
2022/08/13 06:21:15;;;;;;;10.90;4.97;;;;;;;;;;5040807;28;20028;-65
2022/08/13 06:23:42;;;;;;;13.55;5.32;;;;;;;;;;5046410;28;20032;-65
2022/08/13 06:26:09;;;;;;;13.35;5.75;;;;;;;;;;5038328;28;20028;-65
2022/08/13 06:28:36;;;;;;;11.52;5.18;;;;;;;;;;5037786;28;22362;-65
2022/08/13 06:31:04;;;;;;;14.50;5.63;;;;;;;;;;5042940;28;20354;-65
2022/08/13 06:33:31;;;;;;;10.82;5.18;;;;;;;;;;5051820;28;20117;-65
2022/08/13 06:36:00;;;;;;;13.25;5.72;;;;;;;;;;5037268;28;20043;-65
2022/08/13 06:38:31;;;;;;;10.32;4.75;;;;;;;;;;5047903;28;20040;-65
2022/08/13 06:41:01;;;;;;;13.75;5.38;;;;;;;;;;5037496;28;20073;-65
2022/08/13 06:43:28;;;;;;;13.82;5.30;;;;;;;;;;5051318;28;20028;-66
2022/08/13 06:45:55;;;;;;;10.98;4.88;;;;;;;;;;5038191;28;20399;-65
2022/08/13 06:48:22;;;;;;;10.85;4.55;;;;;;;;;;5036168;28;20303;-66
2022/08/13 06:50:50;;;;;;;12.55;4.63;;;;;;;;;;5038189;28;20560;-65
2022/08/13 06:53:17;;;;;;;12.15;4.18;;;;;;;;;;5036147;28;20473;-64
2022/08/13 06:55:44;;;;;;;10.25;4.28;;;;;;;;;;5036909;28;20029;-65
2022/08/13 06:58:10;;;;;;;11.77;4.80;;;;;;;;;;5037158;28;20036;-65
2022/08/13 07:00:38;;;;;;;10.68;4.70;;;;;;;;;;5035553;28;20033;-64
2022/08/13 07:03:04;;;;;;;12.27;4.43;;;;;;;;;;5038742;28;20310;-65
2022/08/13 07:05:41;;;;;;;12.93;4.15;;;;;;;;;;5036321;28;20073;-64
2022/08/13 07:08:11;;;;;;;11.63;3.97;;;;;;;;;;5037440;28;20039;-65
2022/08/13 07:10:43;;;;;;;10.82;4.20;;;;;;;;;;5036730;28;20027;-65
2022/08/13 07:13:09;;;;;;;9.60;4.07;;;;;;;;;;5037328;28;20059;-66
2022/08/13 07:15:40;;;;;;;8.02;3.95;;;;;;;;;;5035465;28;20975;-65
2022/08/13 07:18:07;;;;;;;10.43;4.07;;;;;;;;;;5038844;28;20024;-65
2022/08/13 07:20:33;;;;;;;12.70;3.80;;;;;;;;;;5033695;28;20028;-65
2022/08/13 07:23:00;;;;;;;10.98;4.07;;;;;;;;;;5038288;28;20584;-65
2022/08/13 07:25:30;;;;;;;10.55;3.72;;;;;;;;;;5036231;28;20035;-65
2022/08/13 07:27:58;;;;;;;11.15;3.70;;;;;;;;;;5036732;28;20032;-65
2022/08/13 07:30:25;;;;;;;13.70;3.70;;;;;;;;;;5035083;28;20481;-67
2022/08/13 07:32:52;;;;;;;9.40;4.00;;;;;;;;;;5040050;28;20028;-65
2022/08/13 07:35:18;;;;;;;9.73;3.40;;;;;;;;;;5035728;28;20383;-66
2022/08/13 07:37:45;;;;;;;10.43;3.70;;;;;;;;;;5038084;28;20401;-66
2022/08/13 07:40:11;;;;;;;10.30;4.13;;;;;;;;;;5038210;28;20032;-65
2022/08/13 07:42:42;;;;;;;11.48;4.13;;;;;;;;;;5035368;28;20043;-65
2022/08/13 07:45:10;;;;;;;8.38;4.00;;;;;;;;;;5033133;28;20465;-65
2022/08/13 07:47:36;;;;;;;13.13;4.07;;;;;;;;;;5041467;28;21686;-66
2022/08/13 07:50:05;;;;;;;12.55;3.60;;;;;;;;;;5041265;28;20143;-65
2022/08/13 07:52:32;;;;;;;8.90;3.65;;;;;;;;;;5035951;28;20032;-65
2022/08/13 07:55:01;;;;;;;10.23;4.10;;;;;;;;;;5038806;28;20039;-66
2022/08/13 07:57:29;;;;;;;11.20;3.58;;;;;;;;;;5035115;28;20060;-66
2022/08/13 07:59:55;;;;;;;9.68;3.75;;;;;;;;;;5038060;28;20115;-65
2022/08/13 08:02:25;;;;;;;11.27;4.13;;;;;;;;;;5038445;28;20402;-66
2022/08/13 08:04:52;;;;;;;10.73;3.75;;;;;;;;;;5039788;28;20125;-64
2022/08/13 08:07:18;;;;;;;9.77;3.90;;;;;;;;;;5037127;28;20477;-64
2022/08/13 08:09:45;;;;;;;13.45;3.90;;;;;;;;;;5037299;28;20451;-64
2022/08/13 08:14:57;;;;;;;11.15;3.70;;;;;;;;;;5039226;28;20043;-64
2022/08/13 08:17:27;;;;;;;11.25;3.53;;;;;;;;;;5037504;28;20024;-64
2022/08/13 08:19:53;;;;;;;9.60;3.38;;;;;;;;;;5036676;28;20032;-64
2022/08/13 08:22:21;;;;;;;9.90;3.47;;;;;;;;;;5042360;28;20068;-66
2022/08/13 08:24:50;;;;;;;9.73;3.35;;;;;;;;;;5037552;28;20309;-65
2022/08/13 08:27:19;;;;;;;12.10;3.97;;;;;;;;;;5034821;28;20021;-66
2022/08/13 08:29:46;;;;;;;11.55;3.80;;;;;;;;;;5037540;28;20328;-65
2022/08/13 08:32:13;;;;;;;11.48;3.50;;;;;;;;;;5038010;28;20452;-64
2022/08/13 08:34:41;;;;;;;11.02;3.88;;;;;;;;;;5034338;28;20431;-65
2022/08/13 08:37:09;;;;;;;14.00;3.70;;;;;;;;;;5042437;28;20139;-66
2022/08/13 08:42:43;;;;;;;11.55;3.97;;;;;;;;;;5035933;28;20035;-66
2022/08/13 08:45:13;;;;;;;10.60;4.00;;;;;;;;;;5039340;28;20021;-67
2022/08/13 08:47:40;;;;;;;10.20;3.65;;;;;;;;;;5036513;28;20051;-65
2022/08/13 08:50:07;;;;;;;11.27;3.78;;;;;;;;;;5039623;28;20133;-66
2022/08/13 08:53:35;;;;;;;12.10;3.53;;;;;;;;;;5036163;28;20067;-65
2022/08/13 08:55:35;;;;;;;13.00;3.60;;;;;;;;;;5025661;28;20321;-65
2022/08/13 08:58:03;;;;;;;11.73;3.67;;;;;;;;;;5043005;28;20035;-66
2022/08/13 09:00:29;;;;;;;13.25;3.58;;;;;;;;;;5037611;28;20359;-66
2022/08/13 09:02:56;;;;;;;11.00;3.70;;;;;;;;;;5039559;28;20051;-66
2022/08/13 09:05:25;;;;;;;11.27;3.72;;;;;;;;;;5040034;28;20031;-63
2022/08/13 09:07:52;;;;;;;12.93;3.60;;;;;;;;;;5040060;28;20442;-64
2022/08/13 09:10:19;;;;;;;11.73;3.47;;;;;;;;;;5038386;28;20036;-65
2022/08/13 09:12:46;;;;;;;13.98;3.83;;;;;;;;;;5039267;28;20032;-64
2022/08/13 09:15:14;;;;;;;15.43;4.00;;;;;;;;;;5039456;28;21513;-65
2022/08/13 09:17:40;;;;;;;12.35;3.95;;;;;;;;;;5046125;28;20032;-65
2022/08/13 09:20:12;;;;;;;11.25;3.38;;;;;;;;;;5036619;28;20501;-65
2022/08/13 09:22:40;;;;;;;12.07;3.55;;;;;;;;;;5037373;28;22348;-64
2022/08/13 09:25:07;;;;;;;15.02;3.90;;;;;;;;;;5042163;28;20040;-64
2022/08/13 09:27:35;;;;;;;10.55;3.45;;;;;;;;;;5041267;28;20033;-65
2022/08/13 09:30:05;;;;;;;9.93;3.65;;;;;;;;;;5040507;28;20031;-65
2022/08/13 09:32:32;;;;;;;16.75;4.00;;;;;;;;;;5025446;28;20059;-65
2022/08/13 09:34:58;;;;;;;17.15;4.18;;;;;;;;;;5037834;28;20119;-65
2022/08/13 09:37:25;;;;;;;16.05;4.22;;;;;;;;;;5050054;28;20123;-65
2022/08/13 09:39:53;;;;;;;11.90;4.00;;;;;;;;;;5039393;28;20410;-65
2022/08/13 09:42:27;;;;;;;11.63;3.78;;;;;;;;;;5038806;28;20682;-65
2022/08/13 09:44:59;;;;;;;12.02;3.85;;;;;;;;;;5041491;28;20040;-65
2022/08/13 09:47:26;;;;;;;11.98;3.97;;;;;;;;;;5054435;28;20058;-66
2022/08/13 09:49:52;;;;;;;11.73;3.53;;;;;;;;;;5042864;28;20557;-65
2022/08/13 09:52:22;;;;;;;11.27;4.00;;;;;;;;;;5034367;28;20521;-65
2022/08/13 09:54:49;;;;;;;11.02;3.78;;;;;;;;;;5056401;28;20041;-66
2022/08/13 09:57:17;;;;;;;14.80;3.80;;;;;;;;;;5045865;28;20028;-66
2022/08/13 09:59:44;;;;;;;16.58;4.22;;;;;;;;;;5036171;28;20457;-65
2022/08/13 10:02:12;;;;;;;15.50;3.50;;;;;;;;;;5042671;28;20237;-66
2022/08/13 10:04:38;;;;;;;11.95;3.90;;;;;;;;;;5040920;28;20066;-65
2022/08/13 10:07:07;;;;;;;13.40;3.63;;;;;;;;;;5043654;28;20122;-66
2022/08/13 10:09:34;;;;;;;11.63;3.42;;;;;;;;;;5035937;28;20708;-65
2022/08/13 10:12:01;;;;;;;11.27;3.78;;;;;;;;;;5044087;28;20032;-65
2022/08/13 10:14:27;;;;;;;12.60;3.80;;;;;;;;;;5038422;28;20824;-65
2022/08/13 10:16:53;;;;;;;12.23;3.80;;;;;;;;;;5041708;28;20094;-65
2022/08/13 10:19:20;;;;;;;12.48;3.53;;;;;;;;;;5035564;28;20399;-66
2022/08/13 10:21:47;;;;;;;19.73;3.97;;;;;;;;;;5057968;28;20032;-66
2022/08/13 10:24:13;;;;;;;15.77;4.15;;;;;;;;;;5040285;28;20028;-65
2022/08/13 10:26:40;;;;;;;17.95;4.53;;;;;;;;;;5034288;28;20121;-66
2022/08/13 10:29:10;;;;;;;16.42;4.30;;;;;;;;;;5056729;28;20036;-66
2022/08/13 10:31:36;;;;;;;13.23;3.75;;;;;;;;;;5031835;28;21348;-66
2022/08/13 10:34:03;;;;;;;20.45;4.55;;;;;;;;;;5042113;28;20458;-67
2022/08/13 10:36:30;;;;;;;15.45;4.30;;;;;;;;;;5039439;28;20032;-67
2022/08/13 10:38:56;;;;;;;18.70;3.97;;;;;;;;;;5040117;28;20032;-66
2022/08/13 10:41:24;;;;;;;15.93;3.70;;;;;;;;;;5041358;28;20028;-66
2022/08/13 10:43:50;;;;;;;17.35;3.75;;;;;;;;;;5037089;28;20068;-66
2022/08/13 10:46:17;;;;;;;14.13;4.30;;;;;;;;;;5041035;28;20560;-66
2022/08/13 10:48:44;;;;;;;14.35;3.97;;;;;;;;;;5039035;28;20017;-65
2022/08/13 10:51:10;;;;;;;18.48;4.40;;;;;;;;;;5037177;28;20087;-65
2022/08/13 10:53:55;;;;;;;18.88;4.50;;;;;;;;;;5036730;28;20088;-66
2022/08/13 10:56:22;;;;;;;18.70;4.68;;;;;;;;;;5039120;28;20267;-65
2022/08/13 10:58:48;;;;;;;26.67;5.00;;;;;;;;;;5040491;28;20365;-66
2022/08/13 11:01:15;;;;;;;23.60;5.07;;;;;;;;;;5039599;28;20056;-66
2022/08/13 11:03:45;;;;;;;22.35;4.85;;;;;;;;;;5039230;28;20023;-66
2022/08/13 11:06:12;;;;;;;22.55;4.82;;;;;;;;;;5035233;28;20420;-66
2022/08/13 11:08:38;;;;;;;23.77;5.05;;;;;;;;;;5039891;28;20016;-66
2022/08/13 11:11:08;;;;;;;19.15;4.72;;;;;;;;;;5043532;28;20074;-66
2022/08/13 11:13:38;;;;;;;27.98;5.00;;;;;;;;;;5038982;28;20398;-65
2022/08/13 11:16:12;;;;;;;22.38;5.07;;;;;;;;;;5040367;28;20669;-65
2022/08/13 11:18:38;;;;;;;23.58;5.18;;;;;;;;;;5037740;28;20435;-65
2022/08/13 11:21:06;;;;;;;25.65;5.30;;;;;;;;;;5044816;28;20444;-64
2022/08/13 11:23:33;;;;;;;21.65;4.35;;;;;;;;;;5036096;28;20462;-65
2022/08/13 11:25:59;;;;;;;23.25;5.45;;;;;;;;;;5044624;28;20028;-65
2022/08/13 11:28:25;;;;;;;24.13;4.90;;;;;;;;;;5042097;28;20020;-65
2022/08/13 11:30:52;;;;;;;23.52;4.60;;;;;;;;;;5041171;28;20490;-65
2022/08/13 11:33:22;;;;;;;22.77;4.75;;;;;;;;;;5040713;28;20028;-65
2022/08/13 11:35:48;;;;;;;24.42;5.68;;;;;;;;;;5041575;28;20537;-65
2022/08/13 11:38:15;;;;;;;27.35;5.38;;;;;;;;;;5040426;28;20576;-65
2022/08/13 11:40:46;;;;;;;23.55;5.22;;;;;;;;;;5040047;28;22491;-64
2022/08/13 11:43:12;;;;;;;29.15;5.85;;;;;;;;;;5039795;28;20039;-66
2022/08/13 11:45:39;;;;;;;20.42;5.43;;;;;;;;;;5043264;28;20150;-65
2022/08/13 11:48:08;;;;;;;30.50;6.55;;;;;;;;;;5040579;28;20060;-65
2022/08/13 11:50:35;;;;;;;26.77;5.65;;;;;;;;;;5044409;28;20171;-65
2022/08/13 11:53:01;;;;;;;30.20;5.50;;;;;;;;;;5043330;28;20068;-65
2022/08/13 11:55:27;;;;;;;28.85;5.53;;;;;;;;;;5037868;28;20141;-65
2022/08/13 11:58:07;;;;;;;39.10;6.35;;;;;;;;;;5043126;28;20486;-65
2022/08/13 12:00:36;;;;;;;30.00;5.88;;;;;;;;;;5039454;28;20433;-65
2022/08/13 12:03:03;;;;;;;32.63;6.43;;;;;;;;;;5039631;28;20461;-65
2022/08/13 12:05:29;;;;;;;29.88;5.90;;;;;;;;;;5039889;28;20027;-65
2022/08/13 12:07:55;;;;;;;31.80;7.07;;;;;;;;;;5040707;28;20028;-65
2022/08/13 12:10:22;;;;;;;31.45;6.40;;;;;;;;;;5038395;28;20040;-66
2022/08/13 12:12:48;;;;;;;22.33;5.53;;;;;;;;;;5042688;28;20457;-66
2022/08/13 12:15:14;;;;;;;35.00;6.88;;;;;;;;;;5042890;28;20479;-66
2022/08/13 12:17:42;;;;;;;23.27;5.97;;;;;;;;;;5033767;28;20036;-66
2022/08/13 12:20:10;;;;;;;31.30;6.40;;;;;;;;;;5053312;28;20032;-67
2022/08/13 12:22:36;;;;;;;30.48;6.43;;;;;;;;;;5036410;28;20029;-66
2022/08/13 12:25:02;;;;;;;35.90;7.50;;;;;;;;;;5043716;28;20330;-67
2022/08/13 12:27:28;;;;;;;35.83;7.68;;;;;;;;;;5038282;28;20187;-65
2022/08/13 12:29:55;;;;;;;36.45;7.40;;;;;;;;;;5042134;28;20127;-65
2022/08/13 12:32:21;;;;;;;28.23;6.10;;;;;;;;;;5036421;28;20032;-66
2022/08/13 12:34:47;;;;;;;28.90;5.72;;;;;;;;;;5039469;28;20032;-67
2022/08/13 12:37:14;;;;;;;24.80;5.85;;;;;;;;;;5041348;28;20032;-65
2022/08/13 12:39:40;;;;;;;30.20;6.05;;;;;;;;;;5033033;28;20060;-66
2022/08/13 12:42:06;;;;;;;26.23;5.90;;;;;;;;;;5037643;28;20023;-65
2022/08/13 12:44:32;;;;;;;25.65;5.43;;;;;;;;;;5033055;28;20068;-65
2022/08/13 12:46:58;;;;;;;28.63;6.38;;;;;;;;;;5035170;28;20055;-65
2022/08/13 12:49:25;;;;;;;35.75;7.05;;;;;;;;;;5034491;28;20032;-66
2022/08/13 12:51:51;;;;;;;26.83;6.10;;;;;;;;;;5038235;28;20048;-64
2022/08/13 12:54:17;;;;;;;26.58;6.18;;;;;;;;;;5039476;28;20474;-65
2022/08/13 12:56:45;;;;;;;28.35;6.30;;;;;;;;;;5040495;28;20024;-66
2022/08/13 12:59:11;;;;;;;29.48;6.50;;;;;;;;;;5043604;28;20039;-65
2022/08/13 13:01:37;;;;;;;27.25;5.75;;;;;;;;;;5037642;28;20036;-65
2022/08/13 13:04:03;;;;;;;28.55;6.97;;;;;;;;;;5035764;28;20013;-66
2022/08/13 13:06:30;;;;;;;34.60;7.00;;;;;;;;;;5036960;28;20436;-65
2022/08/13 13:08:56;;;;;;;28.08;6.88;;;;;;;;;;5041225;28;20093;-65
2022/08/13 13:11:22;;;;;;;38.53;6.80;;;;;;;;;;5033597;28;20046;-65
2022/08/13 13:13:49;;;;;;;30.83;6.68;;;;;;;;;;5040178;28;20458;-65
2022/08/13 13:16:16;;;;;;;32.10;6.75;;;;;;;;;;5036685;28;20510;-65
2022/08/13 13:18:42;;;;;;;28.95;6.03;;;;;;;;;;5038688;28;20064;-65
2022/08/13 13:21:09;;;;;;;24.67;6.38;;;;;;;;;;5039739;28;20032;-65
2022/08/13 13:23:35;;;;;;;30.55;6.78;;;;;;;;;;5039346;28;20032;-64
2022/08/13 13:26:02;;;;;;;34.78;7.47;;;;;;;;;;5036620;28;20229;-65
2022/08/13 13:28:32;;;;;;;34.50;7.40;;;;;;;;;;5038220;28;20031;-65
2022/08/13 13:30:58;;;;;;;37.10;7.57;;;;;;;;;;5040570;28;20029;-66
2022/08/13 13:33:25;;;;;;;37.30;6.97;;;;;;;;;;5039333;28;20032;-65
2022/08/13 13:35:53;;;;;;;32.15;7.63;;;;;;;;;;5041607;28;20127;-65
2022/08/13 13:38:20;;;;;;;31.80;8.10;;;;;;;;;;5039606;28;20032;-64
2022/08/13 13:40:47;;;;;;;38.55;8.35;;;;;;;;;;5036591;28;20037;-64
2022/08/13 13:43:14;;;;;;;26.90;6.97;;;;;;;;;;5041495;28;20016;-65
2022/08/13 13:45:41;;;;;;;19.02;5.18;;;;;;;;;;5041618;28;20043;-66
2022/08/13 13:48:38;;;;;;;16.27;4.63;;;;;;;;;;5042454;28;20805;-65
2022/08/13 13:51:05;;;;;;;20.15;4.45;;;;;;;;;;4975820;28;20053;-65
2022/08/13 13:53:33;;;;;;;20.33;4.15;;;;;;;;;;4974532;28;20068;-65
2022/08/13 13:55:59;;;;;;;16.75;4.45;;;;;;;;;;4976148;28;20156;-65
2022/08/13 13:58:26;;;;;;;17.80;3.95;;;;;;;;;;4974398;28;20836;-65
2022/08/13 14:00:53;;;;;;;20.17;5.18;;;;;;;;;;4980310;28;22214;-66
2022/08/13 14:03:22;;;;;;;19.23;4.70;;;;;;;;;;4978249;28;20041;-67
2022/08/13 14:05:49;;;;;;;23.65;5.35;;;;;;;;;;4977277;28;20113;-66
2022/08/13 14:08:15;;;;;;;21.10;5.35;;;;;;;;;;4975537;28;20065;-66
2022/08/13 14:10:46;;;;;;;21.63;4.85;;;;;;;;;;4976725;28;20705;-67
2022/08/13 14:13:13;;;;;;;18.95;4.93;;;;;;;;;;4955822;28;20347;-64
2022/08/13 14:15:39;;;;;;;22.80;5.43;;;;;;;;;;4955021;28;20042;-66
2022/08/13 14:18:15;;;;;;;20.70;4.95;;;;;;;;;;4976311;28;20143;-65
2022/08/13 14:20:45;;;;;;;25.40;5.10;;;;;;;;;;4965096;28;20045;-65
2022/08/13 14:23:13;;;;;;;19.75;5.05;;;;;;;;;;4986011;28;20609;-66
2022/08/13 14:25:41;;;;;;;19.48;4.97;;;;;;;;;;4961531;28;20674;-66
2022/08/13 14:28:09;;;;;;;24.52;5.65;;;;;;;;;;5035304;28;20078;-66
2022/08/13 14:30:35;;;;;;;29.02;7.05;;;;;;;;;;5037942;28;20111;-65
2022/08/13 14:33:02;;;;;;;35.03;8.00;;;;;;;;;;5044851;28;21313;-66
2022/08/13 14:35:28;;;;;;;37.63;8.25;;;;;;;;;;5041847;28;20028;-67
2022/08/13 14:37:54;;;;;;;45.83;8.23;;;;;;;;;;5041411;28;20098;-66
2022/08/13 14:40:21;;;;;;;33.85;7.57;;;;;;;;;;5042057;28;20418;-68
2022/08/13 14:42:52;;;;;;;32.53;7.32;;;;;;;;;;5040634;28;20408;-68
2022/08/13 14:45:48;;;;;;;35.67;7.78;;;;;;;;;;5044361;28;20028;-63
2022/08/13 14:48:16;;;;;;;42.85;8.40;;;;;;;;;;5043846;28;20443;-63
2022/08/13 14:50:45;;;;;;;45.38;8.77;;;;;;;;;;5039368;28;20041;-66